createdAt,value
2022-08-17T00:01:31.480Z,7.20
2022-08-17T00:04:19.424Z,7.33
2022-08-17T00:06:49.104Z,7.90
2022-08-17T00:09:18.463Z,6.50
2022-08-17T00:12:40.629Z,7.50
2022-08-17T00:14:33.368Z,6.13
2022-08-17T00:17:00.070Z,8.50
2022-08-17T00:19:26.772Z,8.90
2022-08-17T00:22:30.963Z,8.00
2022-08-17T00:24:42.992Z,8.90
2022-08-17T00:27:09.684Z,9.07
2022-08-17T00:29:36.402Z,7.97
2022-08-17T00:33:14.162Z,8.70
2022-08-17T00:34:50.170Z,9.10
2022-08-17T00:37:16.822Z,8.33
2022-08-17T00:39:43.734Z,9.30
2022-08-17T00:42:18.249Z,8.80
2022-08-17T00:44:45.231Z,8.93
2022-08-17T00:47:11.996Z,7.67
2022-08-17T00:49:38.705Z,7.97
2022-08-17T00:52:11.875Z,9.10
2022-08-17T00:54:41.658Z,10.20
2022-08-17T00:57:11.187Z,8.40
2022-08-17T00:59:39.677Z,8.90
2022-08-17T01:02:06.971Z,10.07
2022-08-17T01:04:33.756Z,8.73
2022-08-17T01:07:54.743Z,8.03
2022-08-17T01:10:59.497Z,8.30
2022-08-17T01:13:11.246Z,8.37
2022-08-17T01:15:41.322Z,8.60
2022-08-17T01:18:13.570Z,8.70
2022-08-17T01:20:49.459Z,7.70
2022-08-17T01:23:20.618Z,8.50
2022-08-17T01:25:52.576Z,8.17
2022-08-17T01:28:52.647Z,8.63
2022-08-17T01:31:07.579Z,8.13
2022-08-17T01:33:34.346Z,7.80
2022-08-17T01:36:01.149Z,9.07
2022-08-17T01:38:31.757Z,9.73
2022-08-17T01:41:03.165Z,8.70
2022-08-17T01:44:02.666Z,8.23
2022-08-17T01:46:31.994Z,8.17
2022-08-17T01:48:58.707Z,9.13
2022-08-17T01:51:32.474Z,8.30
2022-08-17T01:54:01.207Z,8.53
2022-08-17T01:56:28.645Z,8.70
2022-08-17T01:58:55.554Z,9.70
2022-08-17T02:01:24.587Z,10.13
2022-08-17T02:03:53.138Z,9.47
2022-08-17T02:06:28.948Z,9.40
2022-08-17T02:09:02.850Z,9.53
2022-08-17T02:11:31.463Z,9.03
2022-08-17T02:14:03.208Z,9.97
2022-08-17T02:16:36.831Z,9.13
2022-08-17T02:19:10.326Z,9.20
2022-08-17T02:21:37.472Z,10.30
2022-08-17T02:24:05.629Z,9.50
2022-08-17T02:26:32.746Z,10.00
2022-08-17T02:28:59.563Z,10.17
2022-08-17T02:31:26.259Z,9.17
2022-08-17T02:33:56.667Z,10.27
2022-08-17T02:36:32.492Z,9.10
2022-08-17T02:39:01.353Z,9.40
2022-08-17T02:41:28.462Z,9.07
2022-08-17T02:43:55.187Z,10.23
2022-08-17T02:46:22.606Z,9.50
2022-08-17T02:48:49.766Z,10.63
2022-08-17T02:51:16.538Z,10.37
2022-08-17T02:53:43.186Z,10.63
2022-08-17T02:56:09.829Z,9.47
2022-08-17T02:58:36.495Z,9.90
2022-08-17T03:01:07.047Z,9.90
2022-08-17T03:03:34.171Z,10.93
2022-08-17T03:06:01.351Z,10.30
2022-08-17T03:08:27.981Z,8.77
2022-08-17T03:10:54.649Z,10.67
2022-08-17T03:13:21.601Z,9.50
2022-08-17T03:15:48.415Z,10.03
2022-08-17T03:18:24.628Z,9.93
2022-08-17T03:20:56.733Z,9.00
2022-08-17T03:23:25.279Z,9.90
2022-08-17T03:25:53.039Z,9.30
2022-08-17T03:28:20.589Z,10.80
2022-08-17T03:30:47.275Z,9.80
2022-08-17T03:33:13.983Z,9.30
2022-08-17T03:35:40.854Z,11.33
2022-08-17T03:38:08.619Z,8.80
2022-08-17T03:40:57.975Z,10.30
2022-08-17T03:43:22.418Z,10.27
2022-08-17T03:46:23.994Z,10.13
2022-08-17T03:49:12.988Z,10.30
2022-08-17T03:51:58.903Z,9.27
2022-08-17T03:54:44.495Z,10.07
2022-08-17T03:57:11.337Z,10.33
2022-08-17T03:59:38.788Z,10.70
2022-08-17T04:02:11.112Z,10.30
2022-08-17T04:04:38.145Z,9.07
2022-08-17T04:07:05.480Z,8.73
2022-08-17T04:09:32.235Z,10.53
2022-08-17T04:12:01.307Z,10.43
2022-08-17T04:14:36.224Z,11.10
2022-08-17T04:17:17.468Z,11.60
2022-08-17T04:19:45.126Z,11.47
2022-08-17T04:22:11.771Z,9.90
2022-08-17T04:24:58.833Z,10.50
2022-08-17T04:27:25.667Z,10.20
2022-08-17T04:29:55.623Z,11.00
2022-08-17T04:32:59.199Z,10.60
2022-08-17T04:35:09.910Z,11.47
2022-08-17T04:37:36.566Z,11.20
2022-08-17T04:40:22.396Z,10.80
2022-08-17T04:43:07.013Z,11.43
2022-08-17T04:45:34.069Z,10.53
2022-08-17T04:48:01.245Z,11.30
2022-08-17T04:50:27.998Z,12.70
2022-08-17T04:52:54.856Z,10.97
2022-08-17T04:55:22.081Z,9.97
2022-08-17T04:57:48.804Z,9.80
2022-08-17T05:00:15.875Z,10.97
2022-08-17T05:02:50.697Z,10.00
2022-08-17T05:05:26.279Z,13.60
2022-08-17T05:07:57.065Z,11.23
2022-08-17T05:10:25.361Z,9.77
2022-08-17T05:13:03.834Z,11.03
2022-08-17T05:15:33.117Z,10.67
2022-08-17T05:18:02.720Z,11.03
2022-08-17T05:20:29.378Z,13.97
2022-08-17T05:22:58.036Z,11.70
2022-08-17T05:25:28.577Z,10.27
2022-08-17T05:27:58.550Z,10.77
2022-08-17T05:30:25.518Z,13.53
2022-08-17T05:33:03.210Z,13.57
2022-08-17T05:35:31.402Z,11.17
2022-08-17T05:37:58.190Z,11.17
2022-08-17T05:40:25.876Z,11.90
2022-08-17T05:43:02.989Z,11.03
2022-08-17T05:45:39.929Z,10.77
2022-08-17T05:48:16.302Z,11.43
2022-08-17T05:50:49.162Z,12.43
2022-08-17T05:53:18.861Z,10.70
2022-08-17T05:56:29.546Z,10.97
2022-08-17T05:59:22.321Z,9.93
2022-08-17T06:02:07.637Z,11.30
2022-08-17T06:05:11.956Z,11.90
2022-08-17T06:08:00.098Z,11.77
2022-08-17T06:10:56.943Z,11.80
2022-08-17T06:13:35.617Z,11.47
2022-08-17T06:16:28.144Z,10.97
2022-08-17T06:19:00.194Z,11.37
2022-08-17T06:21:31.914Z,11.10
2022-08-17T06:24:11.875Z,10.50
2022-08-17T06:26:43.264Z,11.00
2022-08-17T06:29:33.455Z,10.83
2022-08-17T06:32:00.384Z,10.00
2022-08-17T06:34:27.219Z,8.93
2022-08-17T06:37:17.352Z,8.33
2022-08-17T06:39:57.797Z,8.87
2022-08-17T06:43:02.716Z,7.60
2022-08-17T06:45:35.943Z,7.20
2022-08-17T06:48:05.874Z,7.90
2022-08-17T06:50:38.230Z,8.10
2022-08-17T06:53:14.057Z,7.37
2022-08-17T06:56:14.389Z,8.60
2022-08-17T06:58:43.008Z,8.50
2022-08-17T07:01:17.861Z,8.67
2022-08-17T07:03:54.718Z,7.33
2022-08-17T07:06:29.693Z,7.60
2022-08-17T07:09:19.326Z,7.60
2022-08-17T07:11:53.511Z,6.80
2022-08-17T07:14:51.700Z,9.80
2022-08-17T07:17:18.769Z,11.70
2022-08-17T07:19:47.820Z,7.60
2022-08-17T07:22:30.423Z,9.40
2022-08-17T07:25:21.357Z,7.33
2022-08-17T07:27:51.187Z,7.33
2022-08-17T07:30:22.272Z,7.37
2022-08-17T07:32:54.526Z,9.23
2022-08-17T07:35:37.690Z,8.50
2022-08-17T07:38:25.008Z,10.77
2022-08-17T07:41:03.147Z,9.50
2022-08-17T07:43:39.747Z,10.37
2022-08-17T07:46:34.173Z,9.37
2022-08-17T07:49:03.683Z,10.10
2022-08-17T07:51:31.729Z,9.43
2022-08-17T07:54:14.009Z,8.20
2022-08-17T07:56:48.381Z,7.30
2022-08-17T07:59:18.204Z,7.10
2022-08-17T08:01:58.828Z,7.23
2022-08-17T08:05:00.092Z,6.80
2022-08-17T08:07:24.344Z,8.27
2022-08-17T08:10:11.339Z,7.73
2022-08-17T08:12:45.860Z,6.20
2022-08-17T08:15:23.572Z,6.37
2022-08-17T08:17:55.360Z,6.63
2022-08-17T08:20:51.213Z,6.53
2022-08-17T08:23:33.642Z,6.33
2022-08-17T08:26:20.303Z,6.10
2022-08-17T08:29:11.321Z,7.00
2022-08-17T08:32:16.346Z,6.80
2022-08-17T08:35:16.253Z,6.20
2022-08-17T08:37:55.621Z,6.07
2022-08-17T08:40:33.398Z,7.60
2022-08-17T08:43:15.240Z,6.50
2022-08-17T08:46:07.109Z,6.53
2022-08-17T08:48:56.534Z,6.57
2022-08-17T08:51:37.985Z,5.93
2022-08-17T08:54:36.034Z,7.30
2022-08-17T08:57:30.770Z,6.33
2022-08-17T09:00:20.257Z,5.67
2022-08-17T09:03:11.196Z,6.07
2022-08-17T09:05:42.362Z,6.23
2022-08-17T09:08:29.226Z,8.47
2022-08-17T09:11:05.244Z,5.93
2022-08-17T09:13:54.573Z,8.47
2022-08-17T09:16:41.979Z,5.40
2022-08-17T09:19:48.551Z,6.27
2022-08-17T09:22:31.376Z,5.97
2022-08-17T09:25:06.884Z,5.93
2022-08-17T09:27:46.224Z,6.17
2022-08-17T09:30:13.634Z,5.83
2022-08-17T09:32:46.044Z,5.23
2022-08-17T09:35:12.926Z,6.17
2022-08-17T09:38:10.835Z,5.87
2022-08-17T09:40:59.163Z,5.47
2022-08-17T09:43:34.383Z,6.00
2022-08-17T09:46:11.963Z,6.13
2022-08-17T09:48:47.292Z,6.90
2022-08-17T09:51:21.420Z,5.50
2022-08-17T09:53:49.763Z,5.50
2022-08-17T09:56:19.448Z,4.60
2022-08-17T09:59:09.170Z,4.47
2022-08-17T10:01:39.856Z,5.50
2022-08-17T10:04:20.370Z,5.87
2022-08-17T10:06:52.338Z,6.10
2022-08-17T10:09:48.781Z,13.65
2022-08-17T10:12:30.496Z,6.07
2022-08-17T10:15:07.656Z,5.00
2022-08-17T10:17:43.973Z,4.13
2022-08-17T10:20:10.820Z,4.65
2022-08-17T10:23:17.368Z,4.53
2022-08-17T10:26:12.880Z,6.00
2022-08-17T10:28:51.157Z,4.35
2022-08-17T10:31:34.641Z,5.65
2022-08-17T10:34:42.099Z,4.07
2022-08-17T10:37:37.581Z,3.53
2022-08-17T10:40:33.169Z,3.83
2022-08-17T10:43:34.137Z,4.90
2022-08-17T10:46:30.546Z,4.13
2022-08-17T10:49:16.800Z,4.68
2022-08-17T10:51:47.907Z,4.20
2022-08-17T10:54:47.252Z,4.47
2022-08-17T10:57:32.154Z,4.00
2022-08-17T10:59:59.184Z,4.68
2022-08-17T11:02:53.205Z,4.55
2022-08-17T11:05:19.976Z,4.70
2022-08-17T11:07:49.368Z,4.13
2022-08-17T11:10:31.108Z,4.00
2022-08-17T11:13:06.626Z,4.32
2022-08-17T11:15:44.093Z,4.45
2022-08-17T11:18:46.461Z,4.23
2022-08-17T11:21:32.120Z,4.20
2022-08-17T11:24:14.761Z,4.00
2022-08-17T11:26:46.747Z,4.10
2022-08-17T11:29:24.644Z,4.40
2022-08-17T11:32:07.739Z,4.20
2022-08-17T11:34:37.891Z,5.70
2022-08-17T11:37:29.331Z,4.10
2022-08-17T11:39:55.968Z,3.60
2022-08-17T11:42:42.298Z,3.80
2022-08-17T11:45:32.077Z,3.77
2022-08-17T11:48:37.073Z,3.10
2022-08-17T11:51:35.353Z,3.80
2022-08-17T11:54:31.605Z,3.83
2022-08-17T11:56:54.946Z,3.47
2022-08-17T11:59:32.651Z,3.70
2022-08-17T12:02:03.140Z,4.00
2022-08-17T12:04:31.608Z,3.72
2022-08-17T12:07:13.300Z,3.22
2022-08-17T12:09:43.107Z,3.67
2022-08-17T12:12:14.339Z,4.50
2022-08-17T12:15:09.465Z,3.72
2022-08-17T12:17:40.503Z,3.17
2022-08-17T12:20:31.061Z,3.50
2022-08-17T12:23:12.307Z,3.80
2022-08-17T12:25:57.478Z,3.58
2022-08-17T12:28:29.617Z,3.35
2022-08-17T12:30:58.765Z,3.97
2022-08-17T12:33:28.019Z,4.07
2022-08-17T12:36:03.259Z,3.63
2022-08-17T12:38:35.149Z,3.63
2022-08-17T12:41:22.579Z,3.03
2022-08-17T12:44:04.250Z,3.60
2022-08-17T12:46:44.717Z,3.67
2022-08-17T12:49:22.808Z,3.80
2022-08-17T12:51:49.628Z,4.15
2022-08-17T12:54:25.655Z,3.22
2022-08-17T12:56:52.306Z,3.78
2022-08-17T12:59:30.170Z,4.55
2022-08-17T13:01:57.423Z,4.40
2022-08-17T13:04:24.144Z,3.42
2022-08-17T13:06:59.903Z,4.13
2022-08-17T13:09:36.100Z,3.72
2022-08-17T13:12:07.385Z,3.95
2022-08-17T13:14:35.086Z,3.67
2022-08-17T13:17:02.034Z,4.13
2022-08-17T13:19:40.026Z,3.90
2022-08-17T13:22:10.578Z,4.03
2022-08-17T13:24:37.953Z,5.27
2022-08-17T13:27:10.052Z,5.77
2022-08-17T13:29:53.132Z,6.13
2022-08-17T13:32:37.791Z,5.50
2022-08-17T13:35:28.355Z,7.90
2022-08-17T13:38:03.459Z,6.03
2022-08-17T13:40:39.795Z,5.43
2022-08-17T13:43:06.480Z,6.40
2022-08-17T13:45:43.451Z,5.50
2022-08-17T13:48:20.100Z,5.70
2022-08-17T13:50:58.706Z,5.43
2022-08-17T13:53:40.413Z,7.22
2022-08-17T13:56:37.689Z,4.88
2022-08-17T13:59:02.771Z,4.93
2022-08-17T14:01:34.934Z,5.95
2022-08-17T14:04:23.054Z,5.70
2022-08-17T14:06:58.706Z,4.75
2022-08-17T14:09:36.812Z,5.20
2022-08-17T14:12:05.560Z,5.82
2022-08-17T14:14:32.229Z,4.45
2022-08-17T14:16:58.913Z,4.85
2022-08-17T14:19:25.825Z,5.03
2022-08-17T14:21:56.463Z,4.50
2022-08-17T14:24:32.428Z,4.05
2022-08-17T14:26:59.710Z,4.97
2022-08-17T14:29:27.906Z,3.80
2022-08-17T14:31:55.352Z,4.90
2022-08-17T14:34:23.373Z,5.30
2022-08-17T14:36:50.060Z,3.75
2022-08-17T14:39:17.969Z,5.05
2022-08-17T14:41:44.603Z,4.45
2022-08-17T14:44:12.396Z,5.38
2022-08-17T14:46:43.659Z,4.70
2022-08-17T14:49:11.285Z,4.20
2022-08-17T14:51:43.895Z,4.13
2022-08-17T14:54:11.884Z,3.58
2022-08-17T14:57:02.881Z,4.30
2022-08-17T14:59:45.196Z,4.55
2022-08-17T15:02:12.194Z,4.45
2022-08-17T15:04:43.361Z,4.45
2022-08-17T15:07:12.171Z,4.30
2022-08-17T15:09:38.987Z,5.47
2022-08-17T15:12:08.435Z,4.75
2022-08-17T15:14:35.495Z,4.15
2022-08-17T15:17:05.591Z,4.43
2022-08-17T15:19:32.236Z,4.13
2022-08-17T15:21:58.881Z,4.13
2022-08-17T15:24:25.542Z,4.90
2022-08-17T15:26:52.170Z,4.00
2022-08-17T15:29:18.818Z,3.58
2022-08-17T15:31:45.461Z,5.22
2022-08-17T15:34:12.114Z,4.20
2022-08-17T15:36:41.402Z,4.03
2022-08-17T15:39:15.942Z,6.60
2022-08-17T15:41:47.232Z,3.72
2022-08-17T15:44:32.453Z,4.25
2022-08-17T15:47:02.175Z,3.35
2022-08-17T15:49:28.814Z,4.18
2022-08-17T15:51:55.615Z,3.80
2022-08-17T15:54:23.351Z,4.18
2022-08-17T15:56:50.409Z,3.50
2022-08-17T15:59:17.038Z,5.38
2022-08-17T16:03:01.430Z,4.07
2022-08-17T16:04:31.780Z,3.80
2022-08-17T16:06:59.384Z,4.25
2022-08-17T16:09:26.026Z,4.80
2022-08-17T16:11:55.625Z,4.45
2022-08-17T16:14:24.093Z,4.17
2022-08-17T16:16:51.088Z,4.03
2022-08-17T16:19:17.760Z,4.13
2022-08-17T16:21:44.405Z,6.82
2022-08-17T16:24:13.591Z,3.95
2022-08-17T16:26:41.900Z,3.80
2022-08-17T16:29:08.599Z,4.53
2022-08-17T16:31:37.487Z,7.00
2022-08-17T16:34:16.934Z,6.57
2022-08-17T16:36:51.679Z,4.60
2022-08-17T16:39:24.545Z,4.70
2022-08-17T16:41:51.179Z,4.70
2022-08-17T16:44:19.210Z,5.60
2022-08-17T16:46:46.249Z,6.27
2022-08-17T16:49:24.452Z,5.67
2022-08-17T16:52:02.864Z,5.20
2022-08-17T16:54:29.568Z,6.90
2022-08-17T16:56:56.224Z,5.63
2022-08-17T16:59:31.120Z,5.03
2022-08-17T17:02:10.005Z,5.90
2022-08-17T17:05:09.303Z,5.30
2022-08-17T17:07:55.391Z,5.67
2022-08-17T17:10:37.961Z,5.70
2022-08-17T17:13:11.181Z,4.80
2022-08-17T17:15:47.460Z,4.63
2022-08-17T17:18:15.313Z,4.43
2022-08-17T17:20:50.050Z,4.93
2022-08-17T17:23:46.796Z,5.10
2022-08-17T17:26:50.837Z,5.27
2022-08-17T17:29:46.580Z,4.80
2022-08-17T17:32:32.611Z,6.93
2022-08-17T17:35:04.409Z,4.63
2022-08-17T17:37:33.214Z,4.53
2022-08-17T17:40:12.218Z,7.33
2022-08-17T17:42:39.566Z,4.80
2022-08-17T17:45:06.968Z,4.03
2022-08-17T17:47:34.337Z,6.13
2022-08-17T17:50:01.596Z,4.30
2022-08-17T17:52:55.655Z,4.50
2022-08-17T17:55:25.351Z,8.00
2022-08-17T17:58:31.991Z,5.93
2022-08-17T18:01:36.567Z,4.37
2022-08-17T18:04:20.400Z,7.00
2022-08-17T18:07:18.936Z,5.47
2022-08-17T18:10:29.724Z,4.63
2022-08-17T18:13:10.404Z,5.77
2022-08-17T18:15:40.836Z,5.43
2022-08-17T18:18:22.783Z,4.80
2022-08-17T18:20:53.703Z,4.97
2022-08-17T18:23:27.705Z,5.37
2022-08-17T18:25:55.185Z,5.00
2022-08-17T18:28:28.009Z,4.73
2022-08-17T18:31:12.216Z,6.40
2022-08-17T18:33:40.355Z,5.67
2022-08-17T18:36:07.398Z,5.20
2022-08-17T18:38:40.939Z,5.30
2022-08-17T18:41:19.517Z,6.97
2022-08-17T18:43:59.086Z,4.70
2022-08-17T18:46:29.719Z,5.17
2022-08-17T18:49:01.841Z,4.73
2022-08-17T18:51:42.701Z,5.70
2022-08-17T18:54:21.431Z,4.80
2022-08-17T18:56:57.491Z,5.40
2022-08-17T18:59:46.989Z,4.80
2022-08-17T19:02:27.326Z,4.77
2022-08-17T19:05:27.090Z,4.70
2022-08-17T19:07:53.827Z,5.40
2022-08-17T19:10:20.894Z,6.77
2022-08-17T19:12:55.007Z,4.10
2022-08-17T19:15:34.178Z,7.47
2022-08-17T19:18:04.442Z,4.93
2022-08-17T19:20:34.728Z,4.80
2022-08-17T19:23:04.108Z,7.20
2022-08-17T19:25:33.427Z,4.67
2022-08-17T19:28:27.047Z,4.80
2022-08-17T19:31:03.448Z,7.13
2022-08-17T19:33:31.322Z,5.80
2022-08-17T19:36:07.592Z,4.83
2022-08-17T19:38:42.565Z,4.83
2022-08-17T19:41:09.631Z,5.93
2022-08-17T19:44:08.210Z,5.00
2022-08-17T19:46:56.367Z,5.60
2022-08-17T19:49:40.535Z,5.10
2022-08-17T19:52:46.550Z,6.40
2022-08-17T19:55:20.962Z,4.70
2022-08-17T19:58:35.530Z,5.30
2022-08-17T20:01:02.368Z,5.40
2022-08-17T20:03:40.984Z,5.43
2022-08-17T20:06:15.297Z,6.00
2022-08-17T20:09:03.896Z,5.07
2022-08-17T20:11:31.198Z,7.17
2022-08-17T20:14:06.826Z,5.80
2022-08-17T20:16:34.263Z,5.13
2022-08-17T20:19:20.902Z,5.70
2022-08-17T20:21:56.702Z,7.10
2022-08-17T20:24:39.546Z,4.80
2022-08-17T20:27:14.894Z,5.33
2022-08-17T20:30:00.275Z,7.27
2022-08-17T20:32:49.121Z,9.10
2022-08-17T20:35:22.340Z,5.57
2022-08-17T20:37:53.433Z,5.23
2022-08-17T20:40:25.942Z,4.93
2022-08-17T20:42:53.043Z,5.40
2022-08-17T20:45:26.419Z,5.40
2022-08-17T20:48:22.242Z,5.00
2022-08-17T20:50:47.571Z,5.83
2022-08-17T20:53:49.393Z,5.50
2022-08-17T20:56:44.241Z,5.47
2022-08-17T20:59:25.442Z,5.90
2022-08-17T21:02:18.640Z,5.43
2022-08-17T21:04:47.357Z,5.73
2022-08-17T21:07:43.141Z,6.03
2022-08-17T21:10:16.214Z,7.40
2022-08-17T21:12:42.859Z,7.33
2022-08-17T21:15:28.509Z,7.00
2022-08-17T21:18:27.113Z,7.27
2022-08-17T21:21:20.106Z,7.33
2022-08-17T21:23:46.742Z,10.03
2022-08-17T21:26:13.897Z,7.80
2022-08-17T21:29:00.068Z,10.43
2022-08-17T21:31:29.543Z,9.00
2022-08-17T21:34:15.849Z,8.00
2022-08-17T21:36:46.152Z,9.07
2022-08-17T21:39:21.416Z,8.83
2022-08-17T21:41:55.208Z,8.60
2022-08-17T21:44:31.332Z,10.70
2022-08-17T21:47:13.462Z,9.00
2022-08-17T21:49:40.557Z,9.60
2022-08-17T21:52:07.258Z,9.30
2022-08-17T21:54:38.842Z,8.60
2022-08-17T21:57:07.208Z,9.13
2022-08-17T21:59:34.662Z,9.57
2022-08-17T22:02:03.085Z,8.60
2022-08-17T22:04:38.022Z,9.10
2022-08-17T22:07:06.825Z,8.67
2022-08-17T22:09:47.449Z,8.80
2022-08-17T22:12:20.842Z,7.80
2022-08-17T22:15:09.570Z,9.37
2022-08-17T22:17:38.345Z,8.50
2022-08-17T22:20:15.757Z,8.83
2022-08-17T22:23:03.949Z,8.50
2022-08-17T22:25:36.091Z,8.80
2022-08-17T22:28:06.401Z,9.23
2022-08-17T22:30:35.685Z,8.37
2022-08-17T22:33:29.946Z,8.10
2022-08-17T22:36:29.258Z,8.60
2022-08-17T22:38:56.967Z,10.10
2022-08-17T22:41:36.800Z,9.33
2022-08-17T22:44:07.771Z,8.43
2022-08-17T22:46:39.654Z,8.73
2022-08-17T22:49:06.309Z,8.63
2022-08-17T22:51:33.385Z,9.23
2022-08-17T22:54:30.273Z,9.13
2022-08-17T22:57:18.658Z,8.63
2022-08-17T22:59:50.177Z,8.97
2022-08-17T23:02:16.889Z,9.10
2022-08-17T23:04:52.389Z,11.17
2022-08-17T23:07:19.814Z,9.83
2022-08-17T23:09:46.499Z,11.53
2022-08-17T23:12:26.663Z,8.93
2022-08-17T23:14:58.392Z,11.00
2022-08-17T23:17:25.040Z,9.73
2022-08-17T23:19:51.729Z,9.60
2022-08-17T23:22:18.370Z,10.17
2022-08-17T23:24:46.277Z,10.10
2022-08-17T23:27:12.966Z,8.53
2022-08-17T23:29:41.882Z,9.47
2022-08-17T23:32:11.062Z,9.50
2022-08-17T23:34:38.719Z,9.53
2022-08-17T23:37:05.847Z,10.30
2022-08-17T23:39:32.555Z,9.43
2022-08-17T23:41:59.608Z,9.57
2022-08-17T23:44:26.839Z,9.47
2022-08-17T23:46:53.715Z,9.10
2022-08-17T23:49:20.522Z,10.13
2022-08-17T23:51:47.735Z,9.47
2022-08-17T23:54:21.813Z,9.97
2022-08-17T23:56:48.548Z,11.93
2022-08-17T23:59:16.424Z,9.70
